Time;durP1;ratioP1;P1;durP2;ratioP2;P2;SDS_P1;SDS_P2;PMS_P1;PMS_P2;Temp;Humidity;BMP_temperature;BMP_pressure;BME280_temperature;BME280_humidity;BME280_pressure;Samples;Min_cycle;Max_cycle;Signal;HPM_P1;HPM_P2
2021/03/25 00:01:22;;;;;;;5.50;4.72;;;;;;;6.55;55.22;100767.13;5037626;28;20029;-80
2021/03/25 00:03:50;;;;;;;7.25;5.53;;;;;;;6.56;54.43;100763.25;5037428;28;20034;-81
2021/03/25 00:06:15;;;;;;;6.20;5.00;;;;;;;6.52;54.06;100756.72;5038651;28;20031;-81
2021/03/25 00:08:41;;;;;;;5.25;4.18;;;;;;;6.43;54.83;100742.06;5036572;28;20485;-80
2021/03/25 00:11:07;;;;;;;5.45;4.82;;;;;;;6.53;55.05;100770.22;5037222;28;20033;-80
2021/03/25 00:13:33;;;;;;;5.93;4.80;;;;;;;6.59;55.17;100773.66;5037481;28;20494;-81
2021/03/25 00:16:01;;;;;;;6.32;4.78;;;;;;;6.57;55.12;100764.88;5037421;28;20033;-80
2021/03/25 00:18:26;;;;;;;7.35;5.57;;;;;;;6.54;54.52;100760.78;5037975;28;20025;-80
2021/03/25 00:20:52;;;;;;;6.32;5.72;;;;;;;6.55;53.65;100767.13;5042259;28;20252;-81
2021/03/25 00:23:18;;;;;;;9.00;5.57;;;;;;;6.48;54.50;100773.13;5044685;28;20033;-81
2021/03/25 00:25:45;;;;;;;8.00;5.10;;;;;;;6.41;55.08;100770.03;5039227;28;20037;-81
2021/03/25 00:28:13;;;;;;;6.60;5.63;;;;;;;6.50;54.87;100768.13;5036876;28;20033;-81
2021/03/25 00:30:39;;;;;;;7.18;5.50;;;;;;;6.37;54.57;100758.00;5021759;28;20034;-81
2021/03/25 00:33:09;;;;;;;8.27;5.07;;;;;;;6.47;55.41;100756.88;5037415;28;20025;-80
2021/03/25 00:35:36;;;;;;;6.32;5.05;;;;;;;6.36;55.42;100758.31;5038599;28;20037;-81
2021/03/25 00:38:03;;;;;;;5.70;4.82;;;;;;;6.36;55.31;100761.09;5040195;28;20087;-81
2021/03/25 00:40:28;;;;;;;7.05;5.40;;;;;;;6.29;56.21;100756.84;5041796;28;20032;-80
2021/03/25 00:42:54;;;;;;;7.18;5.35;;;;;;;6.30;55.88;100755.69;5040900;28;20112;-81
2021/03/25 00:45:28;;;;;;;5.80;4.75;;;;;;;6.35;55.96;100759.47;5038350;28;20124;-81
2021/03/25 00:47:54;;;;;;;5.90;5.05;;;;;;;6.22;55.81;100750.94;5037793;28;20037;-81
2021/03/25 00:50:31;;;;;;;7.38;4.93;;;;;;;6.19;55.83;100757.13;5036959;28;20041;-81
2021/03/25 00:52:58;;;;;;;6.50;4.75;;;;;;;6.19;56.15;100746.06;5036728;28;20542;-80
2021/03/25 00:55:25;;;;;;;8.40;4.60;;;;;;;6.24;56.23;100739.59;5039592;28;20036;-80
2021/03/25 00:57:51;;;;;;;5.90;4.50;;;;;;;6.27;55.99;100739.75;5041228;28;20033;-80
2021/03/25 01:00:26;;;;;;;8.43;5.30;;;;;;;5.95;56.17;100709.72;5039892;28;20033;-80
2021/03/25 01:02:55;;;;;;;4.90;4.40;;;;;;;6.24;56.52;100743.16;5042005;28;20100;-80
2021/03/25 01:05:22;;;;;;;6.82;5.00;;;;;;;6.14;57.07;100746.22;5040586;28;20489;-80
2021/03/25 01:07:51;;;;;;;8.45;5.25;;;;;;;6.20;56.40;100733.88;5039884;28;20021;-80
2021/03/25 01:10:26;;;;;;;4.60;4.20;;;;;;;6.30;55.51;100733.59;5039537;28;20044;-80
2021/03/25 01:12:52;;;;;;;6.60;4.03;;;;;;;6.14;55.85;100728.81;5039502;28;20029;-80
2021/03/25 01:15:18;;;;;;;9.25;6.68;;;;;;;5.86;57.21;100714.34;5040573;28;20095;-80
2021/03/25 01:17:50;;;;;;;9.93;6.32;;;;;;;6.03;57.05;100728.28;5039482;28;20029;-80
2021/03/25 01:20:20;;;;;;;6.25;5.15;;;;;;;6.06;56.73;100721.31;5039090;28;20053;-80
2021/03/25 01:22:46;;;;;;;6.30;4.65;;;;;;;5.92;57.34;100724.19;5039829;28;20041;-80
2021/03/25 01:25:12;;;;;;;4.40;3.90;;;;;;;5.85;57.70;100721.03;5039062;28;20380;-80
2021/03/25 01:27:40;;;;;;;4.95;4.32;;;;;;;5.76;58.03;100724.56;5038861;28;20380;-80
2021/03/25 01:30:06;;;;;;;4.18;3.55;;;;;;;5.72;57.81;100718.06;5039115;28;20491;-80
2021/03/25 01:32:35;;;;;;;4.38;3.97;;;;;;;5.72;57.93;100717.25;5039432;28;20098;-80
2021/03/25 01:35:05;;;;;;;11.20;3.72;;;;;;;5.73;58.38;100724.38;5039283;28;20120;-80
2021/03/25 01:37:33;;;;;;;9.15;4.13;;;;;;;5.85;57.25;100737.59;5039665;28;20041;-80
2021/03/25 01:39:58;;;;;;;6.47;3.50;;;;;;;5.95;57.49;100732.63;5038944;28;20468;-80
2021/03/25 01:42:27;;;;;;;4.75;3.72;;;;;;;5.86;57.19;100729.00;5039731;28;20032;-81
2021/03/25 01:44:53;;;;;;;4.40;3.78;;;;;;;5.88;57.46;100729.50;5023599;28;20472;-80
2021/03/25 01:47:19;;;;;;;4.82;4.05;;;;;;;5.98;57.88;100720.16;5040024;28;20040;-80
2021/03/25 01:49:45;;;;;;;3.50;3.00;;;;;;;5.90;57.39;100729.16;5039368;28;20029;-81
2021/03/25 01:52:32;;;;;;;4.63;3.40;;;;;;;5.89;57.26;100722.03;5039633;28;20060;-80
2021/03/25 01:55:10;;;;;;;3.70;3.00;;;;;;;5.90;57.07;100724.47;5038796;28;20026;-80
2021/03/25 01:57:58;;;;;;;3.28;2.95;;;;;;;5.80;57.53;100716.44;5038390;28;20026;-80
2021/03/25 02:00:47;;;;;;;4.07;3.30;;;;;;;5.94;57.40;100730.19;5038907;28;20030;-81
2021/03/25 02:03:46;;;;;;;3.38;3.08;;;;;;;5.77;56.75;100692.25;5038147;28;20022;-80
2021/03/25 02:06:25;;;;;;;3.78;3.30;;;;;;;5.88;56.29;100725.94;5038633;28;20337;-80
2021/03/25 02:09:05;;;;;;;4.57;3.50;;;;;;;5.84;57.02;100724.91;5039823;28;20044;-80
2021/03/25 02:11:46;;;;;;;5.43;3.50;;;;;;;5.82;56.69;100721.69;5040218;28;20029;-80
2021/03/25 02:14:20;;;;;;;3.83;3.53;;;;;;;5.97;56.78;100718.53;5039471;28;20057;-80
2021/03/25 02:17:00;;;;;;;5.22;3.63;;;;;;;5.92;57.04;100726.94;5038463;28;20403;-80
2021/03/25 02:20:03;;;;;;;3.28;2.85;;;;;;;5.48;56.37;100668.72;5041087;28;20037;-80
2021/03/25 02:22:58;;;;;;;3.35;3.05;;;;;;;5.87;56.69;100713.25;5042176;28;20029;-80
2021/03/25 02:25:28;;;;;;;7.93;3.15;;;;;;;5.81;56.99;100720.06;5042161;28;20025;-80
2021/03/25 02:29:01;;;;;;;3.17;2.88;;;;;;;5.81;57.24;100711.78;5041514;28;20047;-80
2021/03/25 02:31:38;;;;;;;4.25;2.95;;;;;;;5.71;56.91;100716.44;5008243;28;20085;-80
2021/03/25 02:34:13;;;;;;;6.07;3.35;;;;;;;5.76;57.45;100724.56;5041483;28;20143;-80
2021/03/25 02:37:07;;;;;;;3.25;2.95;;;;;;;5.78;57.00;100722.28;5041841;28;20492;-80
2021/03/25 02:39:47;;;;;;;3.88;3.00;;;;;;;5.81;56.70;100720.06;5040602;28;20025;-80
2021/03/25 02:42:16;;;;;;;3.53;2.60;;;;;;;5.74;57.51;100721.28;5058490;28;20037;-80
2021/03/25 02:44:50;;;;;;;5.15;3.03;;;;;;;5.69;58.03;100707.63;5058950;28;20127;-80
2021/03/25 02:47:19;;;;;;;4.50;2.78;;;;;;;5.74;57.92;100715.78;5042198;28;20037;-80
2021/03/25 02:50:02;;;;;;;3.20;2.88;;;;;;;5.78;58.04;100732.53;5047117;28;20033;-81
2021/03/25 02:52:34;;;;;;;4.15;2.75;;;;;;;5.79;58.35;100731.41;5048019;28;20025;-80
2021/03/25 02:55:04;;;;;;;3.63;2.90;;;;;;;5.78;58.36;100730.59;5041529;28;20025;-80
2021/03/25 02:57:36;;;;;;;3.30;2.75;;;;;;;5.66;58.20;100705.53;5041101;28;20512;-80
2021/03/25 03:00:09;;;;;;;3.00;2.70;;;;;;;5.84;58.40;100724.91;5040813;28;20071;-80
2021/03/25 03:02:39;;;;;;;2.45;2.25;;;;;;;5.83;57.90;100734.34;5040972;28;20035;-80
2021/03/25 03:05:16;;;;;;;3.33;2.63;;;;;;;5.69;58.59;100723.38;5023555;28;20484;-80
2021/03/25 03:07:51;;;;;;;3.30;2.50;;;;;;;5.63;58.90;100719.94;5038589;28;20491;-80
2021/03/25 03:10:21;;;;;;;4.70;2.47;;;;;;;5.65;59.24;100723.22;5040746;28;20029;-80
2021/03/25 03:12:49;;;;;;;3.20;2.60;;;;;;;5.68;58.50;100725.34;5040196;28;20060;-80
2021/03/25 03:15:46;;;;;;;3.88;2.33;;;;;;;5.62;59.25;100723.84;5039834;28;20032;-80
2021/03/25 03:18:20;;;;;;;4.45;2.60;;;;;;;5.61;59.12;100727.75;5058393;28;20139;-80
2021/03/25 03:23:45;;;;;;;3.08;2.65;;;;;;;5.63;59.12;100739.25;5038841;28;20094;-80
2021/03/25 03:26:16;;;;;;;3.50;2.65;;;;;;;5.68;59.19;100733.63;5037929;28;20033;-80
2021/03/25 03:28:50;;;;;;;3.53;3.17;;;;;;;5.78;58.32;100738.06;5037299;28;20448;-80
2021/03/25 03:31:26;;;;;;;5.43;4.22;;;;;;;5.69;58.43;100735.25;5038625;28;20029;-80
2021/03/25 03:34:02;;;;;;;7.18;5.72;;;;;;;5.63;59.07;100735.69;5037026;28;20112;-80
2021/03/25 03:36:28;;;;;;;12.23;8.13;;;;;;;5.77;58.97;100734.47;5037184;28;20456;-80
2021/03/25 03:38:56;;;;;;;5.03;4.20;;;;;;;5.60;58.67;100726.13;5036610;28;20029;-81
2021/03/25 03:41:33;;;;;;;4.22;3.83;;;;;;;5.19;59.01;100683.00;5036928;28;20033;-80
2021/03/25 03:44:02;;;;;;;8.07;6.25;;;;;;;5.58;58.87;100725.59;5036777;28;20025;-80
2021/03/25 03:46:30;;;;;;;6.30;4.60;;;;;;;5.66;57.65;100713.81;5037114;28;20037;-80
2021/03/25 03:49:09;;;;;;;4.00;3.65;;;;;;;5.71;57.65;100733.00;5039178;28;20025;-80
2021/03/25 03:51:51;;;;;;;7.13;3.15;;;;;;;5.50;57.88;100720.84;5041893;28;20029;-80
2021/03/25 03:54:17;;;;;;;3.20;2.88;;;;;;;5.65;57.57;100723.22;5039783;28;20038;-80
2021/03/25 03:57:07;;;;;;;2.53;2.28;;;;;;;5.64;56.92;100698.66;5036913;28;20034;-80
2021/03/25 03:59:42;;;;;;;2.45;2.20;;;;;;;5.72;56.57;100740.13;5036109;28;20053;-80
2021/03/25 04:02:15;;;;;;;2.78;2.58;;;;;;;5.67;56.43;100748.56;5036504;28;20033;-80
2021/03/25 04:04:46;;;;;;;3.80;2.97;;;;;;;5.73;55.99;100719.69;5036226;28;20033;-80
2021/03/25 04:07:28;;;;;;;6.85;3.80;;;;;;;5.55;56.43;100711.63;5036999;28;20476;-80
2021/03/25 04:10:42;;;;;;;5.32;4.82;;;;;;;5.61;57.45;100727.75;5036261;28;20040;-80
2021/03/25 04:13:16;;;;;;;6.95;6.25;;;;;;;5.50;57.36;100720.84;5032767;28;20060;-80
2021/03/25 04:15:48;;;;;;;6.65;5.22;;;;;;;5.46;57.76;100725.38;5036789;28;20033;-80
2021/03/25 04:18:16;;;;;;;6.28;4.88;;;;;;;5.56;57.70;100738.91;5037246;28;20021;-80
2021/03/25 04:20:47;;;;;;;7.88;6.40;;;;;;;5.47;57.68;100736.09;5036016;28;20484;-80
2021/03/25 04:23:18;;;;;;;10.40;6.28;;;;;;;5.39;58.21;100720.31;5037576;28;20037;-80
2021/03/25 04:25:54;;;;;;;5.38;4.88;;;;;;;5.37;58.09;100721.72;5036577;28;20110;-80
2021/03/25 04:28:30;;;;;;;10.10;8.05;;;;;;;5.43;58.35;100739.78;5037059;28;20032;-80
2021/03/25 04:30:56;;;;;;;12.02;8.07;;;;;;;5.36;58.66;100731.16;5040145;28;20033;-80
2021/03/25 04:33:24;;;;;;;8.98;7.53;;;;;;;5.48;57.96;100736.91;5040453;28;20037;-80
2021/03/25 04:35:51;;;;;;;7.38;6.22;;;;;;;5.44;58.20;100727.66;5040259;28;20037;-80
2021/03/25 04:38:23;;;;;;;8.65;5.72;;;;;;;5.37;58.49;100733.59;5040124;28;20037;-80
2021/03/25 04:40:50;;;;;;;7.57;5.18;;;;;;;5.29;58.25;100734.34;5039990;28;20376;-80
2021/03/25 04:43:21;;;;;;;4.70;4.22;;;;;;;5.16;58.44;100730.50;5040154;28;20116;-80
2021/03/25 04:46:13;;;;;;;6.35;5.70;;;;;;;5.19;58.87;100732.66;5040000;28;20022;-80
2021/03/25 04:48:42;;;;;;;7.35;6.43;;;;;;;5.21;59.26;100737.84;5040009;28;20029;-80
2021/03/25 04:51:14;;;;;;;7.22;6.03;;;;;;;5.23;59.21;100733.66;5040875;28;20029;-80
2021/03/25 04:53:41;;;;;;;11.15;7.70;;;;;;;5.13;59.37;100731.16;5039909;28;20071;-80
2021/03/25 04:56:12;;;;;;;5.93;3.47;;;;;;;5.16;58.05;100736.03;5040581;28;20036;-80
2021/03/25 04:59:00;;;;;;;5.35;3.67;;;;;;;5.15;58.31;100730.84;5040434;28;20392;-80
2021/03/25 05:01:29;;;;;;;6.82;3.33;;;;;;;5.07;58.64;100724.13;5039477;28;20124;-80
2021/03/25 05:04:00;;;;;;;2.53;2.33;;;;;;;5.09;58.85;100730.16;5038849;28;20044;-80
2021/03/25 05:06:49;;;;;;;7.45;2.67;;;;;;;5.15;58.79;100725.31;5039811;28;20552;-80
2021/03/25 05:09:17;;;;;;;3.30;2.25;;;;;;;5.22;58.74;100742.25;5035740;28;20045;-80
2021/03/25 05:11:43;;;;;;;3.20;2.40;;;;;;;5.27;59.11;100755.91;5040506;28;20036;-80
2021/03/25 05:14:19;;;;;;;3.38;2.80;;;;;;;5.72;57.50;100759.47;5039217;28;20029;-80
2021/03/25 05:16:54;;;;;;;2.65;2.45;;;;;;;6.24;56.22;100756.97;5039540;28;20033;-80
2021/03/25 05:19:39;;;;;;;2.88;2.25;;;;;;;6.83;54.09;100759.41;5042131;28;20083;-80
2021/03/25 05:22:11;;;;;;;4.38;2.75;;;;;;;7.03;52.84;100756.00;5047259;28;20047;-80
2021/03/25 05:24:56;;;;;;;4.10;2.83;;;;;;;7.73;51.10;100761.47;5043058;28;20028;-80
2021/03/25 05:27:31;;;;;;;3.33;2.80;;;;;;;8.40;49.11;100775.41;5041844;28;20047;-80
2021/03/25 05:30:04;;;;;;;5.20;3.30;;;;;;;8.98;48.27;100759.06;5059164;28;20029;-80
2021/03/25 05:32:34;;;;;;;3.80;3.50;;;;;;;9.65;46.44;100773.84;5040981;28;20198;-79
2021/03/25 05:35:04;;;;;;;3.80;3.40;;;;;;;10.19;45.36;100776.50;5058147;28;20035;-80
2021/03/25 05:37:32;;;;;;;3.80;3.38;;;;;;;10.74;43.34;100775.16;5040422;28;20436;-79
2021/03/25 05:39:58;;;;;;;3.42;3.13;;;;;;;11.41;40.80;100787.53;5039215;28;20119;-80
2021/03/25 05:42:33;;;;;;;5.82;3.15;;;;;;;11.93;40.58;100795.00;5039905;28;20062;-80
2021/03/25 05:45:21;;;;;;;7.63;4.10;;;;;;;12.59;39.66;100788.72;5039596;28;20033;-79
2021/03/25 05:48:09;;;;;;;4.43;3.38;;;;;;;13.09;37.47;100792.66;5039790;28;20083;-80
2021/03/25 05:51:12;;;;;;;3.60;2.65;;;;;;;13.68;36.58;100795.50;5040089;28;20025;-79
2021/03/25 05:53:58;;;;;;;4.25;3.05;;;;;;;14.37;34.94;100793.59;5038981;28;20024;-79
2021/03/25 05:56:58;;;;;;;7.45;5.05;;;;;;;14.74;34.10;100804.22;5038642;28;20037;-79
2021/03/25 05:59:29;;;;;;;6.18;5.57;;;;;;;14.89;33.41;100803.25;5038887;28;20029;-79
2021/03/25 06:02:00;;;;;;;6.32;5.60;;;;;;;15.09;33.48;100799.16;5038366;28;20067;-78
2021/03/25 06:04:37;;;;;;;5.28;4.72;;;;;;;15.66;32.46;100797.16;5038399;28;20041;-79
2021/03/25 06:07:15;;;;;;;5.60;5.03;;;;;;;16.06;32.15;100800.38;5056509;28;20037;-79
2021/03/25 06:10:02;;;;;;;6.72;5.40;;;;;;;16.41;31.73;100795.13;5037159;28;20037;-78
2021/03/25 06:12:46;;;;;;;7.57;4.00;;;;;;;16.64;31.63;100788.47;5038028;28;20036;-78
2021/03/25 06:15:18;;;;;;;;;;;;;;;17.06;30.14;100813.28;5038255;28;20032;-79
2021/03/25 06:18:30;;;;;;;4.53;3.28;;;;;;;17.32;29.53;100805.81;5038972;28;20007;-78
2021/03/25 06:21:02;;;;;;;4.00;3.17;;;;;;;17.49;28.53;100793.84;5032609;28;20045;-78
2021/03/25 06:23:46;;;;;;;7.07;4.85;;;;;;;17.91;28.07;100817.75;5034528;28;20112;-78
2021/03/25 06:26:49;;;;;;;6.13;4.72;;;;;;;18.14;27.17;100832.28;5034186;28;20057;-78
2021/03/25 06:29:24;;;;;;;5.30;4.70;;;;;;;18.48;27.24;100837.53;5034995;28;20412;-78
2021/03/25 06:32:16;;;;;;;6.88;3.95;;;;;;;18.37;27.73;100831.91;5034316;28;20039;-78
2021/03/25 06:34:47;;;;;;;2.88;2.60;;;;;;;18.15;27.04;100822.59;5034330;28;20465;-78
2021/03/25 06:37:23;;;;;;;2.65;2.42;;;;;;;18.61;26.19;100829.53;5035511;28;20057;-78
2021/03/25 06:40:01;;;;;;;2.88;2.15;;;;;;;18.48;26.14;100812.19;5034128;28;20017;-78
2021/03/25 06:42:43;;;;;;;5.00;2.65;;;;;;;18.93;26.02;100840.81;5033930;28;20091;-78
2021/03/25 06:45:36;;;;;;;3.17;2.60;;;;;;;18.15;26.00;100802.09;5033837;28;20025;-77
2021/03/25 06:48:40;;;;;;;3.43;2.77;;;;;;;18.71;25.51;100835.19;5034953;28;20069;-77
2021/03/25 06:51:17;;;;;;;3.15;2.65;;;;;;;18.45;26.04;100827.09;5034032;28;20025;-78
2021/03/25 06:53:42;;;;;;;2.28;2.10;;;;;;;18.68;25.82;100841.63;5033628;28;20029;-77
2021/03/25 06:56:13;;;;;;;2.65;2.35;;;;;;;18.79;25.45;100842.41;5033791;28;20125;-78
2021/03/25 06:59:00;;;;;;;2.38;2.17;;;;;;;17.96;26.46;100845.50;5033651;28;20501;-77
2021/03/25 07:01:34;;;;;;;3.05;2.75;;;;;;;18.37;26.14;100831.09;5033473;28;20037;-78
2021/03/25 07:04:10;;;;;;;4.18;3.17;;;;;;;18.98;25.30;100846.06;5035214;28;20044;-78
2021/03/25 07:06:37;;;;;;;2.60;2.40;;;;;;;19.14;25.15;100851.28;5034258;28;20108;-78
2021/03/25 07:09:03;;;;;;;3.40;2.75;;;;;;;19.51;24.93;100851.59;5033701;28;20034;-77
2021/03/25 07:11:30;;;;;;;3.00;2.67;;;;;;;19.74;25.12;100851.13;5033112;28;20067;-78
2021/03/25 07:14:02;;;;;;;8.43;5.95;;;;;;;20.08;24.67;100847.72;5033381;28;20127;-77
2021/03/25 07:16:31;;;;;;;3.15;2.85;;;;;;;20.32;23.81;100869.38;5034207;28;20025;-78
2021/03/25 07:19:06;;;;;;;3.05;2.40;;;;;;;20.10;23.91;100862.25;5034083;28;20026;-78
2021/03/25 07:21:47;;;;;;;2.63;2.17;;;;;;;20.10;23.73;100856.59;5032543;28;20053;-78
2021/03/25 07:24:36;;;;;;;4.05;2.85;;;;;;;20.44;23.37;100872.94;5034758;28;20029;-77
2021/03/25 07:27:08;;;;;;;3.22;2.95;;;;;;;20.74;23.36;100861.84;5033275;28;20040;-78
2021/03/25 07:29:37;;;;;;;3.35;2.95;;;;;;;20.96;23.18;100839.03;5032429;28;20034;-79
2021/03/25 07:32:06;;;;;;;5.38;3.78;;;;;;;20.79;23.29;100875.56;5033938;28;20029;-78
2021/03/25 07:34:39;;;;;;;2.45;2.25;;;;;;;20.62;23.45;100865.19;5033467;28;20359;-78
2021/03/25 07:37:07;;;;;;;8.88;4.97;;;;;;;20.15;23.48;100868.28;5032588;28;20033;-78
2021/03/25 07:40:07;;;;;;;3.78;2.83;;;;;;;19.67;23.79;100868.09;5032505;28;20029;-78
2021/03/25 07:42:37;;;;;;;3.30;2.90;;;;;;;18.79;23.73;100855.72;5032618;28;20025;-78
2021/03/25 07:45:33;;;;;;;8.30;3.80;;;;;;;19.27;23.92;100866.53;5033080;28;20480;-78
2021/03/25 07:48:22;;;;;;;5.65;3.90;;;;;;;18.93;23.83;100874.66;5032963;28;20544;-78
2021/03/25 07:50:53;;;;;;;7.95;4.25;;;;;;;18.28;24.76;100871.75;5032823;28;20116;-78
2021/03/25 07:53:27;;;;;;;4.70;4.22;;;;;;;18.42;25.00;100878.59;5034086;28;20041;-78
2021/03/25 07:56:07;;;;;;;4.88;3.40;;;;;;;17.74;26.24;100882.03;5038403;28;20480;-78
2021/03/25 07:58:45;;;;;;;4.28;3.00;;;;;;;16.92;26.28;100877.84;5035499;28;20021;-78
2021/03/25 08:01:14;;;;;;;4.05;3.35;;;;;;;18.08;26.09;100883.75;5033829;28;20388;-78
2021/03/25 08:03:44;;;;;;;3.50;3.20;;;;;;;18.58;24.54;100876.22;5032550;28;20048;-78
2021/03/25 08:06:38;;;;;;;5.22;2.88;;;;;;;19.49;24.34;100878.59;5032679;28;20075;-78
2021/03/25 08:09:11;;;;;;;5.15;3.45;;;;;;;20.10;23.83;100884.84;5032747;28;20380;-78
2021/03/25 08:11:59;;;;;;;4.30;3.80;;;;;;;20.74;22.58;100876.00;5032971;28;20030;-78
2021/03/25 08:14:36;;;;;;;3.65;3.05;;;;;;;21.24;22.54;100878.38;5032564;28;20494;-78
2021/03/25 08:17:34;;;;;;;5.78;3.92;;;;;;;20.48;22.93;100877.41;5033462;28;20555;-78
2021/03/25 08:20:25;;;;;;;4.07;3.50;;;;;;;20.49;23.49;100892.31;5028677;28;20042;-78
2021/03/25 08:23:17;;;;;;;3.72;2.65;;;;;;;20.36;22.39;100889.16;5032914;28;20542;-78
2021/03/25 08:25:45;;;;;;;4.78;3.33;;;;;;;19.65;22.89;100887.44;5032353;28;20038;-78
2021/03/25 08:28:32;;;;;;;2.75;2.53;;;;;;;19.59;23.18;100881.41;5032469;28;20026;-78
2021/03/25 08:31:44;;;;;;;3.13;2.83;;;;;;;19.35;22.54;100891.53;5032822;28;20346;-78
2021/03/25 08:34:38;;;;;;;3.03;2.50;;;;;;;20.34;22.10;100881.06;5022952;28;20033;-78
2021/03/25 08:37:16;;;;;;;4.20;3.70;;;;;;;20.13;21.28;100856.59;5028096;28;20041;-77
2021/03/25 08:39:58;;;;;;;7.18;4.22;;;;;;;20.58;21.62;100881.38;5033306;28;20472;-78
2021/03/25 08:42:44;;;;;;;3.70;3.40;;;;;;;21.17;20.93;100876.44;5031790;28;20076;-78
2021/03/25 08:45:09;;;;;;;3.83;3.50;;;;;;;21.32;20.67;100885.63;5032585;28;20546;-78
2021/03/25 08:47:53;;;;;;;5.78;3.85;;;;;;;21.08;21.01;100895.09;5032589;28;20029;-78
2021/03/25 08:50:39;;;;;;;4.43;3.40;;;;;;;20.05;21.29;100883.25;5032335;28;20491;-77
2021/03/25 08:53:25;;;;;;;2.97;2.67;;;;;;;19.24;22.59;100884.31;5032495;28;20049;-78
2021/03/25 08:55:55;;;;;;;4.53;3.55;;;;;;;19.22;23.13;100881.88;5032797;28;20048;-78
2021/03/25 08:58:37;;;;;;;7.22;3.83;;;;;;;19.73;22.55;100872.09;5033389;28;20056;-78
2021/03/25 09:01:24;;;;;;;2.80;2.60;;;;;;;19.02;23.14;100880.69;5032108;28;20030;-78
2021/03/25 09:03:56;;;;;;;5.05;4.53;;;;;;;19.91;22.93;100857.09;5032018;28;20029;-78
2021/03/25 09:06:31;;;;;;;4.18;3.22;;;;;;;19.32;22.80;100885.88;5032300;28;20460;-78
2021/03/25 09:09:34;;;;;;;5.43;3.72;;;;;;;19.38;23.27;100876.59;5032140;28;20060;-78
2021/03/25 09:12:01;;;;;;;3.78;3.33;;;;;;;17.98;24.67;100876.88;5032579;28;20460;-78
2021/03/25 09:14:29;;;;;;;4.85;3.75;;;;;;;18.58;24.48;100884.66;5035517;28;20096;-78
2021/03/25 09:17:08;;;;;;;4.07;3.50;;;;;;;19.88;23.35;100876.47;5037886;28;20025;-78
2021/03/25 09:19:39;;;;;;;3.85;2.85;;;;;;;19.05;22.62;100877.06;5037530;28;20021;-77
2021/03/25 09:22:08;;;;;;;5.28;3.08;;;;;;;18.43;23.63;100858.50;5039577;28;20029;-78
2021/03/25 09:24:34;;;;;;;3.83;3.45;;;;;;;19.82;22.92;100855.53;5038965;28;20063;-78
2021/03/25 09:27:08;;;;;;;4.05;3.60;;;;;;;20.62;21.58;100862.38;5038575;28;20025;-78
2021/03/25 09:29:52;;;;;;;;;;;;;;;21.08;20.71;100861.16;5039206;28;20459;-78
2021/03/25 09:32:31;;;;;;;3.28;2.97;;;;;;;20.85;20.45;100864.59;5039267;28;20314;-78
2021/03/25 09:34:57;;;;;;;2.58;2.25;;;;;;;20.84;20.67;100860.97;5038467;28;20033;-77
2021/03/25 09:37:33;;;;;;;5.47;3.03;;;;;;;20.21;20.86;100860.19;5038887;28;20036;-77
2021/03/25 09:40:11;;;;;;;3.50;3.20;;;;;;;20.87;20.97;100857.28;5038508;28;20426;-77
2021/03/25 09:42:39;;;;;;;4.53;3.80;;;;;;;20.76;20.40;100865.06;5056414;28;20063;-78
2021/03/25 09:45:32;;;;;;;4.85;3.95;;;;;;;20.52;20.53;100863.25;5038383;28;20531;-78
2021/03/25 09:48:01;;;;;;;3.60;3.30;;;;;;;21.16;20.76;100865.53;5038270;28;20110;-78
2021/03/25 09:50:29;;;;;;;4.65;2.80;;;;;;;20.74;19.92;100856.22;5038132;28;20090;-78
2021/03/25 09:53:17;;;;;;;3.53;2.47;;;;;;;21.38;19.79;100844.31;5038541;28;20029;-78
2021/03/25 09:56:17;;;;;;;3.80;2.08;;;;;;;20.90;19.92;100856.47;5021495;28;20123;-78
2021/03/25 09:58:46;;;;;;;2.53;2.33;;;;;;;21.41;20.22;100854.78;5038443;28;20456;-78
2021/03/25 10:01:51;;;;;;;3.42;2.80;;;;;;;21.77;19.20;100848.69;5056068;28;20345;-77
2021/03/25 10:04:27;;;;;;;5.82;2.53;;;;;;;21.17;19.47;100844.50;5037713;28;20119;-79
2021/03/25 10:07:02;;;;;;;2.40;2.20;;;;;;;21.54;19.59;100834.44;5037808;28;20452;-78
2021/03/25 10:09:51;;;;;;;2.25;2.05;;;;;;;20.15;20.00;100847.69;5038678;28;20091;-78
2021/03/25 10:12:46;;;;;;;2.70;2.50;;;;;;;19.85;20.68;100846.22;5039407;28;20021;-78
2021/03/25 10:15:27;;;;;;;3.92;2.30;;;;;;;20.20;21.12;100850.09;5037735;28;20112;-79
2021/03/25 10:17:53;;;;;;;3.78;2.40;;;;;;;20.43;20.86;100846.72;5037579;28;20031;-78
2021/03/25 10:20:44;;;;;;;2.60;2.40;;;;;;;20.74;19.66;100847.72;5055393;28;20495;-78
2021/03/25 10:23:57;;;;;;;3.15;1.90;;;;;;;20.85;19.95;100848.44;5055715;28;20099;-78
2021/03/25 10:26:42;;;;;;;2.00;1.87;;;;;;;20.14;20.31;100846.09;5023267;28;20045;-78
2021/03/25 10:29:13;;;;;;;3.88;2.42;;;;;;;21.07;20.46;100834.88;5038888;28;20044;-79
2021/03/25 10:31:39;;;;;;;3.35;2.05;;;;;;;21.44;19.63;100819.16;5037211;28;20033;-79
2021/03/25 10:34:18;;;;;;;2.90;2.60;;;;;;;21.97;19.26;100837.53;5055234;28;20124;-79
2021/03/25 10:36:51;;;;;;;3.72;2.55;;;;;;;22.31;19.04;100836.66;5037670;28;20029;-79
2021/03/25 10:39:25;;;;;;;3.35;2.97;;;;;;;22.55;18.34;100834.69;5037397;28;20525;-80
2021/03/25 10:41:52;;;;;;;4.47;2.65;;;;;;;22.54;18.55;100828.22;5037769;28;20025;-79
2021/03/25 10:44:29;;;;;;;2.63;2.33;;;;;;;22.89;18.48;100826.81;5054430;28;20045;-80
2021/03/25 10:46:58;;;;;;;2.33;2.13;;;;;;;23.36;18.00;100832.47;5036802;28;20025;-79
2021/03/25 10:49:32;;;;;;;3.78;2.08;;;;;;;23.39;18.00;100820.25;5037087;28;20439;-79
2021/03/25 10:51:57;;;;;;;;;;;;;;;23.19;18.16;100823.03;5037101;28;20625;-79
2021/03/25 10:54:37;;;;;;;2.90;2.50;;;;;;;22.94;18.65;100822.69;5036645;28;20011;-79
2021/03/25 10:57:19;;;;;;;4.13;2.60;;;;;;;22.58;18.62;100817.59;5036696;28;20021;-79
2021/03/25 11:00:01;;;;;;;3.28;2.47;;;;;;;22.57;18.50;100818.03;5037054;28;20490;-79
2021/03/25 11:02:31;;;;;;;2.58;2.30;;;;;;;22.84;18.73;100823.66;5036524;28;20037;-79
2021/03/25 11:05:15;;;;;;;3.28;2.70;;;;;;;22.65;18.96;100817.50;5054200;28;20379;-79
2021/03/25 11:07:53;;;;;;;2.63;2.00;;;;;;;22.48;18.78;100813.72;5036586;28;20033;-79
2021/03/25 11:10:24;;;;;;;2.10;1.90;;;;;;;22.29;20.51;100820.09;5037060;28;20432;-79
2021/03/25 11:12:58;;;;;;;2.60;2.40;;;;;;;22.44;22.17;100810.13;5036265;28;20142;-80
2021/03/25 11:16:15;;;;;;;2.30;2.10;;;;;;;21.82;23.50;100819.91;5036052;28;20123;-80
2021/03/25 11:19:11;;;;;;;2.42;2.10;;;;;;;22.28;23.72;100814.84;5036021;28;20033;-79
2021/03/25 11:21:42;;;;;;;3.83;1.58;;;;;;;22.28;23.78;100814.84;5037278;28;20094;-79
2021/03/25 11:24:16;;;;;;;2.10;2.00;;;;;;;22.07;23.18;100815.94;5036176;28;20040;-80
2021/03/25 11:26:42;;;;;;;2.22;1.70;;;;;;;22.38;22.86;100820.38;5036036;28;20035;-80
2021/03/25 11:29:15;;;;;;;2.97;2.70;;;;;;;21.26;24.36;100805.19;5054300;28;20051;-81
2021/03/25 11:31:40;;;;;;;3.40;1.67;;;;;;;20.90;25.37;100808.38;5053921;28;20471;-80
2021/03/25 11:34:06;;;;;;;4.60;2.70;;;;;;;19.55;27.02;100810.03;5036584;28;20043;-79
2021/03/25 11:40:15;;;;;;;4.45;3.05;;;;;;;20.13;27.03;100804.91;5053502;28;20039;-78
2021/03/25 11:42:42;;;;;;;4.15;2.90;;;;;;;20.34;26.46;100784.19;5035954;28;20067;-78
2021/03/25 11:45:33;;;;;;;2.50;2.30;;;;;;;19.44;28.23;100798.00;5036519;28;20095;-79
2021/03/25 11:48:02;;;;;;;9.32;3.03;;;;;;;19.47;27.14;100796.38;5035942;28;20064;-78
2021/03/25 11:50:33;;;;;;;2.75;2.55;;;;;;;19.14;28.02;100789.22;5036813;28;20461;-78
2021/03/25 11:53:02;;;;;;;5.10;2.97;;;;;;;18.00;29.14;100779.56;5036376;28;20028;-79
2021/03/25 11:55:43;;;;;;;6.65;2.53;;;;;;;17.37;31.12;100780.94;5036125;28;20578;-79
2021/03/25 11:58:12;;;;;;;3.22;2.42;;;;;;;17.36;31.91;100768.03;5036624;28;20025;-79
2021/03/25 12:00:52;;;;;;;2.83;2.60;;;;;;;17.98;28.52;100762.25;5036340;28;20025;-79
2021/03/25 12:03:26;;;;;;;2.92;2.38;;;;;;;18.50;27.31;100768.34;5036077;28;20487;-78
2021/03/25 12:05:54;;;;;;;4.82;4.05;;;;;;;18.93;25.47;100770.34;5054479;28;20068;-79
2021/03/25 12:08:23;;;;;;;3.35;2.67;;;;;;;19.10;25.02;100767.47;5054276;28;20033;-79
2021/03/25 12:11:10;;;;;;;3.25;2.70;;;;;;;19.07;23.74;100764.66;5053776;28;20051;-79
2021/03/25 12:13:37;;;;;;;2.83;2.63;;;;;;;19.47;22.73;100770.97;5035958;28;20112;-79
2021/03/25 12:16:07;;;;;;;8.55;3.45;;;;;;;19.78;22.60;100764.38;5019940;28;20125;-80
2021/03/25 12:18:41;;;;;;;3.90;2.85;;;;;;;20.06;22.40;100759.78;5035495;28;20023;-80